Time;durP1;ratioP1;P1;durP2;ratioP2;P2;SDS_P1;SDS_P2;PMS_P1;PMS_P2;Temp;Humidity;BMP_temperature;BMP_pressure;BME280_temperature;BME280_humidity;BME280_pressure;Samples;Min_cycle;Max_cycle;Signal;HPM_P1;HPM_P2
2021/08/17 00:01:54;;;;;;;;;;;15.80;99.90;;;15.90;100.00;100951.22;5012251;28;19980;-57
2021/08/17 00:04:22;;;;;;;;;;;15.90;99.90;;;16.02;100.00;100951.38;5012572;28;19930;-57
2021/08/17 00:06:50;;;;;;;;;;;16.00;99.90;;;16.18;100.00;100944.25;5016193;28;20462;-57
2021/08/17 00:09:19;;;;;;;;;;;16.20;99.90;;;16.34;100.00;100946.16;5016533;28;19929;-57
2021/08/17 00:11:47;;;;;;;;;;;16.40;99.90;;;16.41;100.00;100932.81;5016358;28;19929;-57
2021/08/17 00:14:14;;;;;;;;;;;16.40;99.90;;;16.39;100.00;100940.53;5014781;28;19968;-58
2021/08/17 00:16:42;;;;;;;;;;;16.50;99.90;;;16.44;100.00;100928.66;5016028;28;20364;-57
2021/08/17 00:19:10;;;;;;;;;;;16.50;99.90;;;16.32;100.00;100937.50;5016305;28;20385;-56
2021/08/17 00:21:38;;;;;;;;;;;16.40;99.90;;;16.20;100.00;100940.09;5016178;28;20431;-57
2021/08/17 00:24:06;;;;;;;;;;;16.30;99.90;;;16.10;100.00;100940.44;5015090;28;19937;-57
2021/08/17 00:26:35;;;;;;;;;;;16.20;99.90;;;16.10;100.00;100940.44;5015681;28;19929;-56
2021/08/17 00:29:03;;;;;;;;;;;16.10;99.90;;;16.21;100.00;100938.97;5016116;28;19925;-57
2021/08/17 00:31:31;;;;;;;;;;;16.20;99.90;;;16.28;100.00;100942.00;5015702;28;19929;-57
2021/08/17 00:33:59;;;;;;;;;;;16.30;99.90;;;16.34;100.00;100929.78;5015084;28;19933;-56
2021/08/17 00:36:29;;;;;;;;;;;16.30;99.90;;;16.42;100.00;100937.16;5015139;28;19930;-57
2021/08/17 00:38:56;;;;;;;;;;;16.40;99.90;;;16.46;100.00;100937.31;5016051;28;19929;-57
2021/08/17 00:41:24;;;;;;;;;;;16.40;99.90;;;16.49;100.00;100935.84;5015862;28;20004;-57
2021/08/17 00:43:54;;;;;;;;;;;16.50;99.90;;;16.49;100.00;100935.84;5014768;28;19925;-57
2021/08/17 00:46:23;;;;;;;;;;;16.50;99.90;;;16.28;100.00;100931.09;5015231;28;19929;-57
2021/08/17 00:48:51;;;;;;;;;;;16.40;99.90;;;16.08;100.00;100942.69;5015742;28;20424;-57
2021/08/17 00:51:19;;;;;;;;;;;16.10;99.90;;;15.92;100.00;100940.78;5015700;28;19934;-57
2021/08/17 00:53:47;;;;;;;;;;;16.10;99.90;;;15.98;100.00;100931.31;5014616;28;19979;-57
2021/08/17 00:56:15;;;;;;;;;;;16.00;99.90;;;16.09;100.00;100938.03;5014891;28;19925;-57
2021/08/17 00:58:43;;;;;;;;;;;16.00;99.90;;;16.04;100.00;100940.94;5015626;28;20305;-56
2021/08/17 01:01:12;;;;;;;;;;;16.00;99.90;;;16.01;100.00;100942.38;5015618;28;19929;-56
2021/08/17 01:03:40;;;;;;;;;;;16.00;99.90;;;15.96;100.00;100944.47;5014382;28;20376;-57
2021/08/17 01:06:08;;;;;;;;;;;16.00;99.90;;;15.87;100.00;100941.72;5014898;28;19948;-57
2021/08/17 01:08:36;;;;;;;;;;;15.90;99.90;;;15.79;100.00;100939.81;5014651;28;20012;-56
2021/08/17 01:11:04;;;;;;;;;;;15.80;99.90;;;15.80;100.00;100941.44;5015079;28;19925;-57
2021/08/17 01:13:32;;;;;;;;;;;15.80;99.90;;;15.74;100.00;100937.28;5013991;28;20344;-56
2021/08/17 01:16:00;;;;;;;;;;;15.80;99.90;;;15.68;100.00;100933.09;5014175;28;19930;-57
2021/08/17 01:18:30;;;;;;;;;;;15.70;99.90;;;15.51;100.00;100939.34;5015018;28;19985;-57
2021/08/17 01:20:58;;;;;;;;;;;15.50;99.90;;;15.46;100.00;100930.50;5015052;28;19937;-57
2021/08/17 01:23:30;;;;;;;;;;;15.40;99.90;;;15.33;100.00;100941.22;5014073;28;19929;-57
2021/08/17 01:25:59;;;;;;;;;;;15.30;99.90;;;15.29;100.00;100936.69;5014285;28;19929;-57
2021/08/17 01:28:27;;;;;;;;;;;15.30;99.90;;;15.20;100.00;100936.69;5014778;28;20435;-57
2021/08/17 01:31:02;;;;;;;;;;;15.30;99.90;;;15.15;100.00;100941.50;5014325;28;19925;-57
2021/08/17 01:33:30;;;;;;;;;;;15.20;99.90;;;15.26;100.00;100940.06;5013273;28;20328;-57
2021/08/17 01:35:58;;;;;;;;;;;15.20;99.90;;;15.28;100.00;100946.00;4994678;28;20274;-58
2021/08/17 01:38:26;;;;;;;;;;;15.30;99.90;;;15.20;100.00;100944.88;4995155;28;19933;-56
2021/08/17 01:40:53;;;;;;;;;;;15.30;99.90;;;15.12;100.00;100932.03;4995156;28;19930;-57
2021/08/17 01:43:23;;;;;;;;;;;15.30;99.90;;;15.23;100.00;100937.97;4994260;28;19949;-57
2021/08/17 01:45:55;;;;;;;;;;;15.30;99.90;;;15.48;100.00;100939.16;4994458;28;19926;-57
2021/08/17 01:48:26;;;;;;;;;;;15.40;99.90;;;15.51;100.00;100933.06;4994791;28;19926;-56
2021/08/17 01:50:54;;;;;;;;;;;15.60;99.90;;;15.53;100.00;100930.84;4995092;28;19930;-57
2021/08/17 01:53:22;;;;;;;;;;;15.70;99.90;;;15.70;100.00;100939.03;4994168;28;19941;-57
2021/08/17 01:55:51;;;;;;;;;;;15.60;99.90;;;15.76;100.00;100933.09;4994147;28;19984;-56
2021/08/17 01:58:18;;;;;;;;;;;15.80;99.90;;;15.88;100.00;100937.09;4995186;28;19929;-57
2021/08/17 02:00:48;;;;;;;;;;;15.90;99.90;;;15.97;100.00;100929.69;4999157;28;19980;-57
2021/08/17 02:03:15;;;;;;;;;;;16.00;99.90;;;15.99;100.00;100939.16;5013403;28;19930;-57
2021/08/17 02:05:43;;;;;;;;;;;15.90;99.90;;;15.96;100.00;100936.28;5013757;28;19987;-57
2021/08/17 02:08:11;;;;;;;;;;;16.00;99.90;;;15.89;100.00;100935.97;5014265;28;19933;-57
2021/08/17 02:10:39;;;;;;;;;;;15.90;99.90;;;15.83;100.00;100932.63;5014265;28;19926;-57
2021/08/17 02:13:08;;;;;;;;;;;15.90;99.90;;;15.65;100.00;100933.75;5013292;28;20355;-57
2021/08/17 02:15:36;;;;;;;;;;;15.80;99.90;;;15.51;100.00;100933.06;5013486;28;20248;-57
2021/08/17 02:18:05;;;;;;;;;;;15.70;99.90;;;15.53;100.00;100926.22;5014297;28;19952;-57
2021/08/17 02:20:33;;;;;;;;;;;15.50;99.90;;;15.46;100.00;100928.56;5013911;28;19956;-57
2021/08/17 02:23:00;;;;;;;;;;;15.50;99.90;;;15.36;100.00;100926.13;5013084;28;19979;-57
2021/08/17 02:25:28;;;;;;;;;;;15.40;99.90;;;15.31;100.00;100918.94;5013281;28;19925;-57
2021/08/17 02:27:56;;;;;;;;;;;15.30;99.90;;;15.32;100.00;100919.72;5013304;28;19930;-57
2021/08/17 02:30:23;;;;;;;;;;;15.30;99.90;;;15.35;100.00;100918.31;5013933;28;19930;-56
2021/08/17 02:32:51;;;;;;;;;;;15.30;99.90;;;15.27;100.00;100911.72;5013263;28;19932;-57
2021/08/17 02:35:20;;;;;;;;;;;15.30;99.90;;;15.26;100.00;100913.63;5012787;28;19926;-56
2021/08/17 02:37:48;;;;;;;;;;;15.30;99.90;;;15.18;100.00;100922.59;5013878;28;19926;-57
2021/08/17 02:40:16;;;;;;;;;;;15.20;99.90;;;15.11;100.00;100919.53;5013599;28;19925;-57
2021/08/17 02:42:44;;;;;;;;;;;15.20;99.90;;;15.11;100.00;100924.97;5013173;28;19929;-56
2021/08/17 02:45:12;;;;;;;;;;;15.20;99.90;;;15.21;100.00;100924.69;5012270;28;19934;-57
2021/08/17 02:47:39;;;;;;;;;;;15.30;99.90;;;15.29;100.00;100917.63;5013447;28;19930;-57
2021/08/17 02:50:08;;;;;;;;;;;15.30;99.90;;;15.22;100.00;100911.88;5013486;28;19932;-57
2021/08/17 02:52:37;;;;;;;;;;;15.30;99.90;;;15.31;100.00;100927.13;5013480;28;19925;-57
2021/08/17 02:55:07;;;;;;;;;;;15.30;99.90;;;15.37;100.00;100911.41;5011630;28;20670;-57
2021/08/17 02:57:35;;;;;;;;;;;15.30;99.90;;;15.37;100.00;100907.88;5013410;28;19983;-57
2021/08/17 03:00:02;;;;;;;;;;;15.40;99.90;;;15.25;100.00;100912.03;5013296;28;19925;-57
2021/08/17 03:02:30;;;;;;;;;;;15.30;99.90;;;15.29;100.00;100910.25;5013194;28;19933;-56
2021/08/17 03:04:58;;;;;;;;;;;15.30;99.90;;;15.29;100.00;100910.25;5011801;28;19929;-56
2021/08/17 03:07:25;;;;;;;;;;;15.30;99.90;;;15.32;100.00;100904.19;5012195;28;20439;-56
2021/08/17 03:09:54;;;;;;;;;;;15.30;99.90;;;15.28;100.00;100905.94;5012949;28;19933;-56
2021/08/17 03:12:22;;;;;;;;;;;15.20;99.90;;;15.24;100.00;100901.44;5013195;28;19925;-56
2021/08/17 03:14:50;;;;;;;;;;;15.20;99.90;;;15.10;100.00;100907.03;5011932;28;19933;-57
2021/08/17 03:17:17;;;;;;;;;;;15.10;99.90;;;15.09;100.00;100908.16;5013156;28;19929;-57
2021/08/17 03:19:45;;;;;;;;;;;15.10;99.90;;;15.09;100.00;100915.53;5012918;28;19933;-57
2021/08/17 03:22:13;;;;;;;;;;;15.10;99.90;;;15.10;100.00;100915.22;5013010;28;20341;-57
2021/08/17 03:24:40;;;;;;;;;;;15.10;99.90;;;14.98;100.00;100914.22;5011538;28;19925;-57
2021/08/17 03:27:09;;;;;;;;;;;15.10;99.90;;;15.11;100.00;100918.72;5012854;28;19925;-57
2021/08/17 03:29:37;;;;;;;;;;;15.10;99.90;;;15.11;100.00;100916.81;5012746;28;19980;-56
2021/08/17 03:32:06;;;;;;;;;;;15.10;99.90;;;15.01;100.00;100917.13;5012909;28;19972;-57
2021/08/17 03:34:34;;;;;;;;;;;15.10;99.90;;;15.02;100.00;100915.97;5011472;28;19933;-56
2021/08/17 03:37:02;;;;;;;;;;;15.00;99.90;;;14.94;100.00;100915.97;5012546;28;19926;-56
2021/08/17 03:39:30;;;;;;;;;;;15.00;99.90;;;14.87;100.00;100916.41;5012707;28;19929;-57
2021/08/17 03:41:58;;;;;;;;;;;15.00;99.90;;;14.77;100.00;100908.56;5012697;28;19926;-57
2021/08/17 03:44:27;;;;;;;;;;;14.90;99.90;;;14.61;100.00;100904.66;5011539;28;19979;-57
2021/08/17 03:46:55;;;;;;;;;;;14.60;99.90;;;14.50;100.00;100903.34;5012095;28;19930;-56
2021/08/17 03:49:23;;;;;;;;;;;14.60;99.90;;;14.43;100.00;100894.81;5012481;28;19929;-57
2021/08/17 03:51:50;;;;;;;;;;;14.50;99.90;;;14.50;100.00;100897.91;5012465;28;19936;-57
2021/08/17 03:54:18;;;;;;;;;;;14.50;99.90;;;14.42;100.00;100890.47;5011628;28;19976;-57
2021/08/17 03:56:46;;;;;;;;;;;14.40;99.90;;;14.50;100.00;100893.22;5012326;28;19925;-57
2021/08/17 03:59:13;;;;;;;;;;;14.50;99.90;;;14.57;100.00;100892.78;5012675;28;19932;-56
2021/08/17 04:01:43;;;;;;;;;;;14.60;99.90;;;14.61;100.00;100891.84;5012537;28;20361;-57
2021/08/17 04:04:10;;;;;;;;;;;14.70;99.90;;;14.58;100.00;100899.84;5011583;28;19968;-57
2021/08/17 04:06:38;;;;;;;;;;;14.70;99.90;;;14.56;100.00;100897.41;5012238;28;19930;-57
2021/08/17 04:09:06;;;;;;;;;;;14.80;99.90;;;14.81;100.00;100909.50;5012570;28;19933;-57
2021/08/17 04:11:33;;;;;;;;;;;14.90;99.90;;;14.84;100.00;100906.16;5012603;28;19929;-57
2021/08/17 04:14:01;;;;;;;;;;;15.00;99.90;;;14.82;100.00;100902.97;5011255;28;19930;-57
2021/08/17 04:16:29;;;;;;;;;;;15.00;99.90;;;14.69;100.00;100893.78;5012229;28;19984;-56
2021/08/17 04:18:58;;;;;;;;;;;15.00;99.90;;;14.68;100.00;100905.78;5012540;28;19937;-57
2021/08/17 04:21:25;;;;;;;;;;;14.90;99.90;;;14.60;100.00;100903.03;5012365;28;19979;-57
2021/08/17 04:23:53;;;;;;;;;;;14.90;99.90;;;14.62;100.00;100907.03;5011344;28;19933;-57
2021/08/17 04:26:21;;;;;;;;;;;14.80;99.90;;;14.54;100.00;100907.00;5012211;28;20296;-56
2021/08/17 04:28:49;;;;;;;;;;;14.70;99.90;;;14.42;100.00;100906.81;5012286;28;19925;-56
2021/08/17 04:31:16;;;;;;;;;;;14.60;99.90;;;14.37;100.00;100904.22;5012362;28;19979;-56
2021/08/17 04:33:44;;;;;;;;;;;14.60;99.90;;;14.31;100.00;100908.16;5011529;28;19979;-57
2021/08/17 04:36:13;;;;;;;;;;;14.60;99.90;;;14.24;100.00;100905.88;5011613;28;19933;-57
2021/08/17 04:38:41;;;;;;;;;;;;;;;14.17;100.00;100906.31;5012413;28;19980;-57
2021/08/17 04:41:09;;;;;;;;;;;14.40;99.90;;;14.10;100.00;100903.22;5011894;28;20404;-57
2021/08/17 04:43:36;;;;;;;;;;;14.40;99.90;;;14.09;100.00;100911.72;5011411;28;19933;-56
2021/08/17 04:46:04;;;;;;;;;;;14.40;99.90;;;14.11;100.00;100909.47;5011557;28;20439;-56
2021/08/17 04:48:32;;;;;;;;;;;14.40;99.90;;;14.10;100.00;100905.16;5012257;28;19936;-57
2021/08/17 04:50:59;;;;;;;;;;;14.40;99.90;;;14.18;100.00;100907.94;5014182;28;19933;-57
2021/08/17 04:53:29;;;;;;;;;;;14.50;99.90;;;14.22;100.00;100911.66;5015138;28;19979;-57
2021/08/17 04:55:57;;;;;;;;;;;14.50;99.90;;;14.23;100.00;100909.72;5014564;28;19988;-57
2021/08/17 04:58:25;;;;;;;;;;;14.50;99.90;;;14.28;100.00;100911.50;5015680;28;19979;-57
2021/08/17 05:00:52;;;;;;;;;;;14.50;99.90;;;14.18;100.00;100920.72;5015478;28;20361;-56
2021/08/17 05:03:22;;;;;;;;;;;14.60;99.90;;;14.30;100.00;100910.06;5014819;28;19926;-57
2021/08/17 05:05:50;;;;;;;;;;;14.60;99.90;;;14.32;100.00;100917.94;5014665;28;19991;-57
2021/08/17 05:08:18;;;;;;;;;;;14.60;99.90;;;14.38;100.00;100919.44;5015208;28;19925;-56
2021/08/17 05:10:47;;;;;;;;;;;14.50;99.90;;;14.48;100.00;100914.53;5015353;28;19979;-57
2021/08/17 05:13:15;;;;;;;;;;;14.50;99.90;;;14.42;100.00;100923.13;5014475;28;20328;-57
2021/08/17 05:15:42;;;;;;;;;;;14.60;99.90;;;14.30;100.00;100928.31;5014632;28;19933;-57
2021/08/17 05:18:10;;;;;;;;;;;14.70;99.90;;;14.26;100.00;100925.41;5015206;28;19926;-57
2021/08/17 05:20:38;;;;;;;;;;;14.50;99.90;;;14.13;100.00;100926.31;5015278;28;19999;-57
2021/08/17 05:23:05;;;;;;;;;;;14.50;99.90;;;14.01;100.00;100924.13;5014344;28;19925;-57
2021/08/17 05:25:33;;;;;;;;;;;14.40;99.90;;;13.91;100.00;100929.84;5014433;28;19980;-57
2021/08/17 05:28:02;;;;;;;;;;;14.30;99.90;;;13.86;100.00;100938.09;5014743;28;19956;-57
2021/08/17 05:30:30;;;;;;;;;;;14.30;99.90;;;14.06;100.00;100940.34;5015116;28;19925;-57
2021/08/17 05:32:58;;;;;;;;;;;14.30;99.90;;;14.13;100.00;100939.91;5013243;28;20340;-57
2021/08/17 05:35:25;;;;;;;;;;;14.40;99.90;;;14.24;100.00;100947.50;5013740;28;19929;-57
2021/08/17 05:37:53;;;;;;;;;;;14.50;99.90;;;14.35;100.00;100944.56;5014022;28;19984;-57
2021/08/17 05:40:22;;;;;;;;;;;14.60;99.90;;;14.46;100.00;100951.31;5014122;28;19980;-57
2021/08/17 05:42:49;;;;;;;;;;;14.70;99.90;;;14.50;100.00;100946.88;5011724;28;19937;-56
2021/08/17 05:45:18;;;;;;;;;;;14.70;99.90;;;14.41;100.00;100941.34;5012638;28;19926;-57
2021/08/17 05:47:47;;;;;;;;;;;14.60;99.90;;;14.18;100.00;100945.22;5013495;28;19929;-57
2021/08/17 05:50:15;;;;;;;;;;;14.60;99.90;;;13.82;100.00;100958.06;5012952;28;19925;-56
2021/08/17 05:52:43;;;;;;;;;;;14.40;99.90;;;13.72;100.00;100964.53;5012686;28;20365;-55
2021/08/17 05:55:12;;;;;;;;;;;14.30;99.90;;;13.71;100.00;100957.47;5013117;28;19979;-57
2021/08/17 05:57:40;;;;;;;;;;;14.20;99.90;;;13.89;100.00;100961.16;5014543;28;20273;-56
2021/08/17 06:00:10;;;;;;;;;;;14.20;99.90;;;13.91;100.00;100959.75;5014544;28;19972;-57
2021/08/17 06:02:39;;;;;;;;;;;14.20;99.90;;;14.02;100.00;100958.38;5013152;28;19932;-55
2021/08/17 06:05:08;;;;;;;;;;;14.20;99.90;;;13.91;100.00;100964.38;5013403;28;19968;-56
2021/08/17 06:07:36;;;;;;;;;;;14.20;99.90;;;13.88;100.00;100965.78;5014374;28;19926;-56
2021/08/17 06:10:04;;;;;;;;;;;14.20;99.90;;;14.03;100.00;100960.00;5014241;28;20373;-56
2021/08/17 06:12:32;;;;;;;;;;;14.30;99.90;;;14.24;100.00;100965.72;5014115;28;20373;-56
2021/08/17 06:14:59;;;;;;;;;;;14.50;99.90;;;14.69;100.00;100953.66;5012911;28;19956;-56
2021/08/17 06:17:27;;;;;;;;;;;14.80;99.90;;;15.25;100.00;100955.63;5014061;28;19926;-56
2021/08/17 06:19:56;;;;;;;;;;;15.30;99.90;;;15.80;100.00;100953.16;5014058;28;19925;-57
2021/08/17 06:22:24;;;;;;;;;;;15.80;99.90;;;16.52;100.00;100944.19;5013969;28;19980;-56
2021/08/17 06:24:52;;;;;;;;;;;16.40;99.90;;;17.19;100.00;100938.75;5012649;28;19926;-56
2021/08/17 06:27:19;;;;;;;;;;;;;;;17.68;100.00;100933.63;5013262;28;19929;-56
2021/08/17 06:29:47;;;;;;;;;;;17.50;99.90;;;18.80;100.00;100930.53;5014052;28;20299;-56
2021/08/17 06:32:15;;;;;;;;;;;18.30;99.90;;;19.94;100.00;100932.88;5014070;28;19926;-57
2021/08/17 06:34:43;;;;;;;;;;;19.20;99.90;;;20.90;100.00;100920.50;5012631;28;19929;-57
2021/08/17 06:37:12;;;;;;;;;;;20.20;99.90;;;21.89;100.00;100914.44;5013590;28;20324;-56
2021/08/17 06:39:40;;;;;;;;;;;21.10;99.90;;;22.90;91.53;100911.16;5013800;28;19927;-57
2021/08/17 06:42:07;;;;;;;;;;;22.00;99.90;;;23.85;88.13;100914.44;5013699;28;19948;-57
2021/08/17 06:44:35;;;;;;;;;;;23.00;99.90;;;24.47;82.74;100912.72;5012419;28;19929;-57
2021/08/17 06:47:04;;;;;;;;;;;23.80;99.90;;;25.16;76.49;100912.91;5013520;28;19934;-57
2021/08/17 06:49:31;;;;;;;;;;;24.50;99.90;;;25.76;73.24;100916.00;5013350;28;19926;-57
2021/08/17 06:51:59;;;;;;;;;;;25.20;99.90;;;26.48;70.58;100915.78;5013518;28;19925;-57
2021/08/17 06:54:28;;;;;;;;;;;25.90;99.90;;;26.63;67.58;100911.06;5012210;28;19925;-57
2021/08/17 06:56:56;;;;;;;;;;;26.40;99.90;;;26.09;69.03;100915.69;5013070;28;19984;-57
2021/08/17 06:59:23;;;;;;;;;;;26.60;99.90;;;25.59;70.52;100922.25;5013261;28;19932;-57
2021/08/17 07:01:51;;;;;;;;;;;26.40;99.90;;;26.12;71.62;100927.97;5013416;28;19925;-58
2021/08/17 07:04:19;;;;;;;;;;;26.80;99.90;;;27.13;66.09;100920.94;5012186;28;19933;-58
2021/08/17 07:06:46;;;;;;;;;;;27.70;99.90;;;27.43;62.77;100924.06;5012978;28;19929;-58
2021/08/17 07:09:14;;;;;;;;;;;28.40;99.90;;;27.50;62.23;100915.72;5012807;28;19930;-58
2021/08/17 07:11:43;;;;;;;;;;;29.00;99.90;;;27.05;64.91;100924.94;5013191;28;19929;-58
2021/08/17 07:14:11;;;;;;;;;;;29.00;99.90;;;26.35;68.42;100934.81;5011658;28;20476;-58
2021/08/17 07:16:39;;;;;;;;;;;28.40;99.90;;;25.83;71.29;100930.69;5019371;28;20387;-60
2021/08/17 07:19:06;;;;;;;;;;;27.60;99.90;;;25.50;74.03;100942.00;5017478;28;19925;-57
2021/08/17 07:21:34;;;;;;;;;;;27.00;99.90;;;25.30;74.88;100943.44;5012203;28;19936;-58
2021/08/17 07:24:02;;;;;;;;;;;26.40;99.90;;;24.97;75.63;100944.41;5011941;28;19925;-58
2021/08/17 07:26:30;;;;;;;;;;;25.80;99.90;;;24.75;77.71;100945.38;5012637;28;19930;-59
2021/08/17 07:29:00;;;;;;;;;;;25.40;99.90;;;24.49;80.26;100946.34;5012848;28;20319;-58
2021/08/17 07:31:27;;;;;;;;;;;25.20;99.90;;;24.39;82.48;100947.03;5013027;28;19929;-58
2021/08/17 07:33:55;;;;;;;;;;;25.00;99.90;;;24.52;82.61;100947.53;5011796;28;19933;-58
2021/08/17 07:36:23;;;;;;;;;;;25.00;99.90;;;24.53;82.02;100946.38;5012722;28;19926;-58
2021/08/17 07:38:50;;;;;;;;;;;25.00;99.90;;;24.56;81.91;100946.41;5012670;28;20447;-58
2021/08/17 07:41:18;;;;;;;;;;;25.00;99.90;;;24.57;81.25;100947.97;5012976;28;19930;-59
2021/08/17 07:43:46;;;;;;;;;;;25.10;99.90;;;24.55;81.22;100949.53;5011953;28;19925;-58
2021/08/17 07:46:15;;;;;;;;;;;25.10;99.90;;;24.38;79.24;100943.44;5012463;28;19930;-58
2021/08/17 07:48:43;;;;;;;;;;;24.70;99.90;;;24.02;83.58;100955.28;5012676;28;19925;-59
2021/08/17 07:51:11;;;;;;;;;;;24.40;99.90;;;24.01;86.57;100950.94;5012662;28;20403;-58
2021/08/17 07:53:39;;;;;;;;;;;24.40;99.90;;;24.12;87.39;100953.84;5011829;28;19933;-59
2021/08/17 07:56:07;;;;;;;;;;;24.50;99.90;;;24.21;86.11;100963.41;5012147;28;20372;-59
2021/08/17 07:58:35;;;;;;;;;;;24.60;99.90;;;24.31;86.41;100967.47;5012502;28;19936;-58
2021/08/17 08:01:03;;;;;;;;;;;24.70;99.90;;;24.27;87.96;100972.16;5012346;28;19925;-61
2021/08/17 08:03:33;;;;;;;;;;;24.90;99.90;;;24.31;86.64;100971.03;5011783;28;19980;-59
2021/08/17 08:06:01;;;;;;;;;;;24.90;99.90;;;24.42;88.57;100966.41;5012482;28;20037;-60
2021/08/17 08:08:29;;;;;;;;;;;25.10;99.90;;;24.60;85.17;100971.31;5012857;28;19991;-59
2021/08/17 08:10:57;;;;;;;;;;;25.20;99.90;;;24.67;82.03;100974.16;5012616;28;19929;-60
2021/08/17 08:13:24;;;;;;;;;;;25.20;99.90;;;24.54;83.42;100981.91;5011671;28;19936;-59
2021/08/17 08:15:52;;;;;;;;;;;25.10;99.90;;;24.40;85.42;100993.63;5012081;28;19929;-60
2021/08/17 08:18:20;;;;;;;;;;;25.10;99.90;;;24.37;85.09;100997.16;5012619;28;19929;-60
2021/08/17 08:20:49;;;;;;;;;;;25.10;99.90;;;24.46;85.50;100989.38;5012507;28;19968;-59
2021/08/17 08:23:17;;;;;;;;;;;25.20;99.90;;;24.51;82.94;100992.94;5011626;28;19936;-59
2021/08/17 08:25:44;;;;;;;;;;;25.20;99.90;;;24.34;82.49;100994.34;5013603;28;19929;-59
2021/08/17 08:28:12;;;;;;;;;;;24.90;99.90;;;24.11;84.27;100988.16;5016328;28;19929;-59
2021/08/17 08:30:40;;;;;;;;;;;24.60;99.90;;;24.06;85.14;100985.72;5016048;28;19926;-59
2021/08/17 08:33:08;;;;;;;;;;;24.50;99.90;;;24.04;85.05;100991.63;5015493;28;19933;-59
2021/08/17 08:35:36;;;;;;;;;;;24.60;99.90;;;24.04;84.76;100993.59;5015590;28;19926;-59
2021/08/17 08:38:05;;;;;;;;;;;24.60;99.90;;;24.07;85.21;100996.41;5016163;28;19940;-59
2021/08/17 08:40:34;;;;;;;;;;;24.60;99.90;;;24.12;85.74;100996.06;5015872;28;20381;-59
2021/08/17 08:43:01;;;;;;;;;;;24.70;99.90;;;24.21;86.15;100995.78;5015332;28;19936;-59
2021/08/17 08:45:29;;;;;;;;;;;24.90;99.90;;;24.33;83.06;100995.53;5015386;28;19936;-59
2021/08/17 08:47:57;;;;;;;;;;;25.00;99.90;;;24.40;83.33;101004.69;5016045;28;20389;-59
2021/08/17 08:50:25;;;;;;;;;;;25.10;99.90;;;24.35;81.42;100993.97;5015983;28;19929;-57
2021/08/17 08:52:53;;;;;;;;;;;25.10;99.90;;;24.28;82.80;100998.63;5018763;28;19979;-58
2021/08/17 08:55:22;;;;;;;;;;;25.00;99.90;;;24.48;82.19;100997.25;5014815;28;19929;-58
2021/08/17 08:57:50;;;;;;;;;;;25.00;99.90;;;24.67;82.24;100999.81;5015472;28;19929;-58
2021/08/17 09:00:18;;;;;;;;;;;25.10;99.90;;;24.96;78.78;100996.16;5015572;28;19929;-58
2021/08/17 09:02:46;;;;;;;;;;;25.50;99.90;;;25.17;77.46;101003.06;5015114;28;19925;-58
2021/08/17 09:05:14;;;;;;;;;;;25.70;99.90;;;25.37;75.56;100998.84;5014743;28;19929;-57
2021/08/17 09:07:43;;;;;;;;;;;26.00;99.90;;;25.26;74.64;101000.75;5014824;28;19979;-57
2021/08/17 09:10:12;;;;;;;;;;;26.00;99.90;;;25.13;75.85;100996.69;5014948;28;19936;-58
2021/08/17 09:12:43;;;;;;;;;;;26.00;99.90;;;25.20;73.73;101005.06;5014900;28;20028;-58
2021/08/17 09:15:16;;;;;;;;;;;25.90;99.90;;;24.96;74.17;100996.16;5014191;28;20328;-57
2021/08/17 09:17:45;;;;;;;;;;;25.60;99.90;;;24.74;76.39;100988.84;5015228;28;19925;-57
2021/08/17 09:20:16;;;;;;;;;;;25.20;99.90;;;24.57;76.33;101006.03;5014875;28;20447;-57
2021/08/17 09:22:44;;;;;;;;;;;25.10;99.90;;;24.28;78.38;101013.25;5014420;28;20439;-57
2021/08/17 09:25:11;;;;;;;;;;;24.70;99.90;;;24.31;80.23;101017.22;5012804;28;19926;-57
2021/08/17 09:27:39;;;;;;;;;;;24.90;99.90;;;24.55;80.65;101021.41;5013748;28;19925;-58
2021/08/17 09:30:11;;;;;;;;;;;25.10;99.90;;;24.75;77.98;101018.06;5014696;28;19929;-58
2021/08/17 09:32:52;;;;;;;;;;;25.30;99.90;;;24.81;76.62;101016.56;5014769;28;19926;-58
2021/08/17 09:35:21;;;;;;;;;;;25.40;99.90;;;24.80;76.69;101014.19;5014232;28;19925;-57
2021/08/17 09:38:06;;;;;;;;;;;25.50;99.90;;;24.90;75.93;101011.53;5014671;28;19930;-58
2021/08/17 09:40:34;;;;;;;;;;;25.50;99.90;;;24.89;75.04;101014.69;5014726;28;19948;-58
2021/08/17 09:43:13;;;;;;;;;;;25.50;99.90;;;25.10;74.88;101016.81;5014061;28;19933;-57
2021/08/17 09:45:43;;;;;;;;;;;25.50;99.90;;;25.07;73.74;101023.13;5014197;28;20303;-57
2021/08/17 09:48:13;;;;;;;;;;;25.40;99.90;;;25.17;74.98;101019.66;5014705;28;19933;-58
2021/08/17 09:50:42;;;;;;;;;;;25.70;99.90;;;25.11;73.71;101021.97;5014490;28;19926;-58
2021/08/17 09:53:12;;;;;;;;;;;25.70;99.90;;;25.10;73.83;101025.94;5014001;28;20384;-58
2021/08/17 09:55:43;;;;;;;;;;;25.70;99.90;;;25.19;73.43;101031.13;5013710;28;19926;-58
2021/08/17 09:58:33;;;;;;;;;;;25.80;99.90;;;25.12;73.19;101017.22;5014350;28;19996;-58
2021/08/17 10:01:05;;;;;;;;;;;25.70;99.90;;;25.13;72.50;101022.41;5011596;28;19925;-58
2021/08/17 10:03:34;;;;;;;;;;;25.80;99.90;;;25.09;73.43;101020.75;5014529;28;19980;-58
2021/08/17 10:06:02;;;;;;;;;;;25.80;99.90;;;25.10;73.26;101017.63;5012452;28;19933;-58
2021/08/17 10:08:31;;;;;;;;;;;25.80;99.90;;;25.20;74.01;101019.66;5014230;28;19937;-58
2021/08/17 10:11:00;;;;;;;;;;;25.70;99.90;;;25.22;72.51;101022.06;5014225;28;19991;-58
2021/08/17 10:13:31;;;;;;;;;;;25.80;99.90;;;24.96;73.84;101017.50;5014388;28;19926;-58
2021/08/17 10:15:59;;;;;;;;;;;25.60;99.90;;;24.95;73.19;101032.53;5013695;28;19925;-58
2021/08/17 10:18:31;;;;;;;;;;;25.60;99.90;;;24.83;72.97;101021.75;5025967;28;19933;-57
2021/08/17 10:21:01;;;;;;;;;;;25.40;99.90;;;24.67;75.26;101026.69;5014317;28;20393;-58
2021/08/17 10:23:30;;;;;;;;;;;25.10;99.90;;;24.54;75.84;101020.63;5013315;28;20389;-57
2021/08/17 10:25:59;;;;;;;;;;;24.90;99.90;;;24.47;76.95;101020.53;5013470;28;19925;-57
2021/08/17 10:28:32;;;;;;;;;;;24.90;99.90;;;24.54;76.85;101023.38;5013856;28;19929;-58
2021/08/17 10:31:02;;;;;;;;;;;25.00;99.90;;;24.62;75.61;101025.06;5013834;28;19925;-57
2021/08/17 10:33:41;;;;;;;;;;;25.10;99.90;;;24.77;75.16;101026.81;5012104;28;19976;-58
2021/08/17 10:36:10;;;;;;;;;;;25.20;99.90;;;24.88;74.52;101018.63;5013270;28;19936;-58
2021/08/17 10:38:49;;;;;;;;;;;25.30;99.90;;;24.88;74.28;101013.09;5013800;28;20372;-57
2021/08/17 10:41:28;;;;;;;;;;;25.30;99.90;;;24.67;75.03;101013.66;5013743;28;19941;-58
2021/08/17 10:44:10;;;;;;;;;;;25.20;99.90;;;24.75;74.52;101008.97;5012609;28;20241;-57
2021/08/17 10:46:58;;;;;;;;;;;25.30;99.90;;;24.96;72.69;101009.19;5013240;28;19925;-57
2021/08/17 10:49:45;;;;;;;;;;;25.40;99.90;;;25.00;73.90;101010.81;5013041;28;20280;-58
2021/08/17 10:52:28;;;;;;;;;;;25.50;99.90;;;25.12;73.45;101011.69;5012982;28;19980;-58
2021/08/17 10:55:22;;;;;;;;;;;25.60;99.90;;;25.27;71.02;101005.09;5012026;28;19929;-58
2021/08/17 10:57:52;;;;;;;;;;;25.80;99.90;;;25.13;71.79;100996.69;5023709;28;19925;-58
2021/08/17 11:00:44;;;;;;;;;;;25.60;99.90;;;25.13;71.79;100994.72;5012619;28;19995;-58
2021/08/17 11:03:13;;;;;;;;;;;25.70;99.90;;;25.21;70.98;100996.34;5012318;28;20292;-58
2021/08/17 11:05:52;;;;;;;;;;;25.70;99.90;;;25.25;71.43;100996.38;5012547;28;19929;-58
2021/08/17 11:08:37;;;;;;;;;;;25.70;99.90;;;25.24;70.92;100995.59;5013312;28;19941;-58
2021/08/17 11:11:11;;;;;;;;;;;25.80;99.90;;;25.28;70.37;100987.31;5012635;28;20018;-58
2021/08/17 11:13:38;;;;;;;;;;;25.90;99.90;;;25.21;69.50;100982.53;5012044;28;19933;-58